createdAt,value
2023-04-08T00:02:34.321Z,10.19
2023-04-08T00:05:21.125Z,10.06
2023-04-08T00:08:09.077Z,10.21
2023-04-08T00:10:55.584Z,10.12
2023-04-08T00:13:42.092Z,9.92
2023-04-08T00:16:28.316Z,9.84
2023-04-08T00:19:14.789Z,9.80
2023-04-08T00:22:01.198Z,9.94
2023-04-08T00:24:49.152Z,10.06
2023-04-08T00:27:35.737Z,10.20
2023-04-08T00:30:22.258Z,10.16
2023-04-08T00:33:08.840Z,9.93
2023-04-08T00:35:55.532Z,9.68
2023-04-08T00:38:41.893Z,9.82
2023-04-08T00:41:29.605Z,9.75
2023-04-08T00:44:16.050Z,9.51
2023-04-08T00:47:02.753Z,9.46
2023-04-08T00:49:49.289Z,9.38
2023-04-08T00:52:35.684Z,9.38
2023-04-08T00:55:22.289Z,9.61
2023-04-08T00:58:10.032Z,9.85
2023-04-08T01:01:03.121Z,9.64
2023-04-08T01:03:58.982Z,9.43
2023-04-08T01:06:50.517Z,9.48
2023-04-08T01:09:40.143Z,9.50
2023-04-08T01:12:28.282Z,9.28
2023-04-08T01:15:17.187Z,9.25
2023-04-08T01:18:08.323Z,9.30
2023-04-08T01:20:55.691Z,9.03
2023-04-08T01:23:55.866Z,8.90
2023-04-08T01:26:44.877Z,8.85
2023-04-08T01:29:31.960Z,8.96
2023-04-08T01:32:19.307Z,9.10
2023-04-08T01:35:07.211Z,9.15
2023-04-08T01:37:55.234Z,8.87
2023-04-08T01:40:43.666Z,8.54
2023-04-08T01:43:33.784Z,8.44
2023-04-08T01:46:21.667Z,8.39
2023-04-08T01:49:09.241Z,8.45
2023-04-08T01:51:57.860Z,8.06
2023-04-08T01:54:43.966Z,7.88
2023-04-08T01:57:34.738Z,7.81
2023-04-08T02:00:26.969Z,7.81
2023-04-08T02:03:14.206Z,7.86
2023-04-08T02:06:00.830Z,8.11
2023-04-08T02:08:46.988Z,8.07
2023-04-08T02:11:33.277Z,7.80
2023-04-08T02:14:19.941Z,7.97
2023-04-08T02:17:12.470Z,7.88
2023-04-08T02:20:06.728Z,7.84
2023-04-08T02:23:00.819Z,7.69
2023-04-08T02:25:49.636Z,8.20
2023-04-08T02:28:37.701Z,8.17
2023-04-08T02:31:25.810Z,8.21
2023-04-08T02:34:15.123Z,8.39
2023-04-08T02:37:01.638Z,8.41
2023-04-08T02:39:47.724Z,8.59
2023-04-08T02:42:34.139Z,8.84
2023-04-08T02:45:20.382Z,8.86
2023-04-08T02:48:09.683Z,9.04
2023-04-08T02:50:57.515Z,9.36
2023-04-08T02:53:44.086Z,9.31
2023-04-08T02:56:30.623Z,9.28
2023-04-08T02:59:16.820Z,8.58
2023-04-08T03:02:02.860Z,9.35
2023-04-08T03:04:49.519Z,9.00
2023-04-08T03:07:36.966Z,8.49
2023-04-08T03:10:22.980Z,8.22
2023-04-08T03:13:09.190Z,7.88
2023-04-08T03:15:55.366Z,7.73
2023-04-08T03:18:41.742Z,7.63
2023-04-08T03:21:27.832Z,7.66
2023-04-08T03:24:15.570Z,7.55
2023-04-08T03:27:01.936Z,7.35
2023-04-08T03:29:48.450Z,7.08
2023-04-08T03:32:34.892Z,6.94
2023-04-08T03:35:24.713Z,7.01
2023-04-08T03:38:11.101Z,7.03
2023-04-08T03:40:58.952Z,7.04
2023-04-08T03:43:45.834Z,6.83
2023-04-08T03:46:32.335Z,7.42
2023-04-08T03:49:18.598Z,7.85
2023-04-08T03:52:05.636Z,8.18
2023-04-08T03:54:52.106Z,8.36
2023-04-08T03:57:39.768Z,8.42
2023-04-08T04:00:26.299Z,8.47
2023-04-08T04:03:13.352Z,8.26
2023-04-08T04:06:00.000Z,8.64
2023-04-08T04:08:46.427Z,8.82
2023-04-08T04:11:32.666Z,9.24
2023-04-08T04:14:20.384Z,8.44
2023-04-08T04:17:06.764Z,8.19
2023-04-08T04:19:53.074Z,8.17
2023-04-08T04:22:39.297Z,8.24
2023-04-08T04:25:25.829Z,8.44
2023-04-08T04:28:11.840Z,8.46
2023-04-08T04:30:59.741Z,8.50
2023-04-08T04:33:47.226Z,8.54
2023-04-08T04:36:33.511Z,8.26
2023-04-08T04:39:20.054Z,8.08
2023-04-08T04:42:06.644Z,7.72
2023-04-08T04:44:54.053Z,7.87
2023-04-08T04:47:42.054Z,7.96
2023-04-08T04:50:28.571Z,7.97
2023-04-08T04:53:14.799Z,8.20
2023-04-08T04:56:01.803Z,8.31
2023-04-08T04:58:48.294Z,8.19
2023-04-08T05:01:34.461Z,8.07
2023-04-08T05:04:22.538Z,8.06
2023-04-08T05:07:08.970Z,8.25
2023-04-08T05:09:55.419Z,8.10
2023-04-08T05:12:42.022Z,8.19
2023-04-08T05:15:28.957Z,8.06
2023-04-08T05:18:15.456Z,7.83
2023-04-08T05:21:03.220Z,8.15
2023-04-08T05:23:50.987Z,8.30
2023-04-08T05:26:38.721Z,8.58
2023-04-08T05:29:25.542Z,8.76
2023-04-08T05:32:12.133Z,8.38
2023-04-08T05:34:58.320Z,8.15
2023-04-08T05:37:46.016Z,8.06
2023-04-08T05:40:32.225Z,8.24
2023-04-08T05:43:18.678Z,8.29
2023-04-08T05:46:07.923Z,8.34
2023-04-08T05:48:54.047Z,8.23
2023-04-08T05:51:40.403Z,8.45
2023-04-08T05:54:28.149Z,8.08
2023-04-08T05:57:14.258Z,8.19
2023-04-08T06:00:00.825Z,8.05
2023-04-08T06:02:47.496Z,8.12
2023-04-08T06:05:33.844Z,7.71
2023-04-08T06:08:21.097Z,7.80
2023-04-08T06:11:08.752Z,7.89
2023-04-08T06:13:55.419Z,7.97
2023-04-08T06:16:41.776Z,8.24
2023-04-08T06:19:27.963Z,7.98
2023-04-08T06:22:14.141Z,8.09
2023-04-08T06:25:00.698Z,8.01
2023-04-08T06:27:48.623Z,8.15
2023-04-08T06:30:34.835Z,8.45
2023-04-08T06:33:21.558Z,8.55
2023-04-08T06:36:08.938Z,8.38
2023-04-08T06:38:55.375Z,8.50
2023-04-08T06:41:41.584Z,8.93
2023-04-08T06:44:44.245Z,8.81
2023-04-08T06:47:30.747Z,8.61
2023-04-08T06:50:17.025Z,9.10
2023-04-08T06:53:03.113Z,9.17
2023-04-08T06:55:49.666Z,8.98
2023-04-08T06:58:36.152Z,9.14
2023-04-08T07:01:24.964Z,8.69
2023-04-08T07:04:11.398Z,8.59
2023-04-08T07:06:57.809Z,8.93
2023-04-08T07:09:45.913Z,8.60
2023-04-08T07:12:32.156Z,9.06
2023-04-08T07:15:18.273Z,9.22
2023-04-08T07:18:06.132Z,8.73
2023-04-08T07:20:53.064Z,8.78
2023-04-08T07:23:39.137Z,8.97
2023-04-08T07:26:25.773Z,8.69
2023-04-08T07:29:11.950Z,8.46
2023-04-08T07:31:58.187Z,8.76
2023-04-08T07:34:45.837Z,9.36
2023-04-08T07:37:31.899Z,9.37
2023-04-08T07:40:18.596Z,9.35
2023-04-08T07:43:04.894Z,9.39
2023-04-08T07:45:51.274Z,9.76
2023-04-08T07:48:37.916Z,9.25
2023-04-08T07:51:25.600Z,9.48
2023-04-08T07:54:12.498Z,10.01
2023-04-08T07:56:59.832Z,10.20
2023-04-08T07:59:46.020Z,10.17
2023-04-08T08:02:32.211Z,9.93
2023-04-08T08:05:18.775Z,9.79
2023-04-08T08:08:07.578Z,10.45
2023-04-08T08:10:53.925Z,10.64
2023-04-08T08:13:40.396Z,10.34
2023-04-08T08:16:29.483Z,10.27
2023-04-08T08:19:15.972Z,10.55
2023-04-08T08:22:02.338Z,10.36
2023-04-08T08:24:50.009Z,10.67
2023-04-08T08:27:36.436Z,10.35
2023-04-08T08:30:23.017Z,10.23
2023-04-08T08:33:09.415Z,10.45
2023-04-08T08:35:57.916Z,10.70
2023-04-08T08:38:44.617Z,10.81
2023-04-08T08:41:36.491Z,10.77
2023-04-08T08:44:23.084Z,11.29
2023-04-08T08:47:09.547Z,11.34
2023-04-08T08:49:56.183Z,11.84
2023-04-08T08:52:49.586Z,11.96
2023-04-08T08:56:02.168Z,11.88
2023-04-08T08:58:43.913Z,12.24
2023-04-08T09:01:34.626Z,12.04
2023-04-08T09:04:23.059Z,12.33
2023-04-08T09:07:11.426Z,12.47
2023-04-08T09:09:59.443Z,12.62
2023-04-08T09:12:55.472Z,12.82
2023-04-08T09:16:02.165Z,13.08
2023-04-08T09:18:49.017Z,13.46
2023-04-08T09:21:35.659Z,13.36
2023-04-08T09:24:30.209Z,13.13
2023-04-08T09:27:16.776Z,13.19
2023-04-08T09:30:15.518Z,13.11
2023-04-08T09:33:07.157Z,13.63
2023-04-08T09:35:53.995Z,13.62
2023-04-08T09:38:40.581Z,13.88
2023-04-08T09:41:29.565Z,13.74
2023-04-08T09:44:17.709Z,14.13
2023-04-08T09:47:11.397Z,14.32
2023-04-08T09:50:03.903Z,13.94
2023-04-08T09:52:55.127Z,14.07
2023-04-08T09:55:44.682Z,14.52
2023-04-08T09:58:39.996Z,14.77
2023-04-08T10:01:34.105Z,14.78
2023-04-08T10:04:22.279Z,15.20
2023-04-08T10:07:10.627Z,14.70
2023-04-08T10:09:59.501Z,14.64
2023-04-08T10:12:46.076Z,15.39
2023-04-08T10:15:33.672Z,15.35
2023-04-08T10:18:33.750Z,15.37
2023-04-08T10:21:39.503Z,15.09
2023-04-08T10:24:27.200Z,15.25
2023-04-08T10:27:40.676Z,15.24
2023-04-08T10:30:43.507Z,15.55
2023-04-08T10:33:34.593Z,15.29
2023-04-08T10:36:20.842Z,15.50
2023-04-08T10:39:07.142Z,15.57
2023-04-08T10:41:55.848Z,15.17
2023-04-08T10:44:45.966Z,15.32
2023-04-08T10:47:32.296Z,15.24
2023-04-08T10:50:20.012Z,15.17
2023-04-08T10:53:06.506Z,15.25
2023-04-08T10:55:53.712Z,15.62
2023-04-08T10:58:50.652Z,15.67
2023-04-08T11:01:44.955Z,15.67
2023-04-08T11:04:31.286Z,16.27
2023-04-08T11:07:21.759Z,16.68
2023-04-08T11:10:09.349Z,16.35
2023-04-08T11:12:56.341Z,16.30
2023-04-08T11:15:44.341Z,16.15
2023-04-08T11:18:32.190Z,16.87
2023-04-08T11:21:18.716Z,16.81
2023-04-08T11:24:11.863Z,17.17
2023-04-08T11:26:59.200Z,16.57
2023-04-08T11:29:46.212Z,17.02
2023-04-08T11:32:35.439Z,17.31
2023-04-08T11:35:21.864Z,17.29
2023-04-08T11:38:09.300Z,16.88
2023-04-08T11:40:55.998Z,16.92
2023-04-08T11:43:52.695Z,16.60
2023-04-08T11:46:40.999Z,16.74
2023-04-08T11:49:29.302Z,16.69
2023-04-08T11:52:15.826Z,16.27
2023-04-08T11:55:01.866Z,16.80
2023-04-08T11:57:48.187Z,17.01
2023-04-08T12:00:34.537Z,16.95
2023-04-08T12:03:21.311Z,17.34
2023-04-08T12:06:10.046Z,17.57
2023-04-08T12:08:57.675Z,17.15
2023-04-08T12:11:43.833Z,17.41
2023-04-08T12:14:30.677Z,17.59
2023-04-08T12:17:19.246Z,17.11
2023-04-08T12:20:07.655Z,17.32
2023-04-08T12:22:56.154Z,17.21
2023-04-08T12:25:43.026Z,17.38
2023-04-08T12:28:31.882Z,17.44
2023-04-08T12:31:18.344Z,18.16
2023-04-08T12:34:04.654Z,18.13
2023-04-08T12:36:51.250Z,17.72
2023-04-08T12:39:38.963Z,18.17
2023-04-08T12:42:25.320Z,18.22
2023-04-08T12:45:11.735Z,18.21
2023-04-08T12:47:58.307Z,18.69
2023-04-08T12:50:44.816Z,18.04
2023-04-08T12:53:31.142Z,18.04
2023-04-08T12:56:19.006Z,18.29
2023-04-08T12:59:05.593Z,18.09
2023-04-08T13:01:52.196Z,18.27
2023-04-08T13:04:38.574Z,18.50
2023-04-08T13:07:24.738Z,18.58
2023-04-08T13:10:11.464Z,19.20
2023-04-08T13:12:59.336Z,19.20
2023-04-08T13:15:45.795Z,18.82
2023-04-08T13:18:32.209Z,18.71
2023-04-08T13:21:18.522Z,18.53
2023-04-08T13:24:09.924Z,18.14
2023-04-08T13:27:04.817Z,17.86
2023-04-08T13:29:52.389Z,17.89
2023-04-08T13:32:39.066Z,17.46
2023-04-08T13:35:25.532Z,17.37
2023-04-08T13:38:13.664Z,17.50
2023-04-08T13:41:00.144Z,17.80
2023-04-08T13:43:47.142Z,17.36
2023-04-08T13:46:35.776Z,17.34
2023-04-08T13:49:22.171Z,17.57
2023-04-08T13:52:09.049Z,17.55
2023-04-08T13:54:55.699Z,18.03
2023-04-08T13:57:41.991Z,18.10
2023-04-08T14:00:28.548Z,18.89
2023-04-08T14:03:16.782Z,20.45
2023-04-08T14:06:03.060Z,19.04
2023-04-08T14:08:50.163Z,18.37
2023-04-08T14:11:38.610Z,17.40
2023-04-08T14:14:25.379Z,18.09
2023-04-08T14:17:12.071Z,18.17
2023-04-08T14:20:01.020Z,18.17
2023-04-08T14:22:47.207Z,18.42
2023-04-08T14:25:33.763Z,18.26
2023-04-08T14:28:20.079Z,17.93
2023-04-08T14:31:06.816Z,17.74
2023-04-08T14:33:53.338Z,17.98
2023-04-08T14:36:41.076Z,17.80
2023-04-08T14:39:28.232Z,18.06
2023-04-08T14:42:16.539Z,18.26
2023-04-08T14:45:03.343Z,18.44
2023-04-08T14:47:50.034Z,18.87
2023-04-08T14:50:36.484Z,18.89
2023-04-08T14:53:24.357Z,18.40
2023-04-08T14:56:11.249Z,19.06
2023-04-08T14:58:57.587Z,18.71
2023-04-08T15:01:44.951Z,18.98
2023-04-08T15:04:31.688Z,19.38
2023-04-08T15:07:18.354Z,19.35
2023-04-08T15:10:06.579Z,19.21
2023-04-08T15:12:52.753Z,18.61
2023-04-08T15:15:39.042Z,18.05
2023-04-08T15:18:25.657Z,17.97
2023-04-08T15:21:12.211Z,17.44
2023-04-08T15:23:59.149Z,16.98
2023-04-08T15:26:47.247Z,17.06
2023-04-08T15:29:33.735Z,17.30
2023-04-08T15:32:20.348Z,17.92
2023-04-08T15:35:07.793Z,18.40
2023-04-08T15:37:55.704Z,18.88
2023-04-08T15:40:43.257Z,19.45
2023-04-08T15:43:31.222Z,19.29
2023-04-08T15:46:24.217Z,19.42
2023-04-08T15:49:10.800Z,19.38
2023-04-08T15:52:00.435Z,19.70
2023-04-08T15:54:47.157Z,19.85
2023-04-08T15:57:33.276Z,20.52
2023-04-08T16:00:21.488Z,19.58
2023-04-08T16:03:11.975Z,19.85
2023-04-08T16:06:01.035Z,20.16
2023-04-08T16:08:52.633Z,19.81
2023-04-08T16:11:39.528Z,18.75
2023-04-08T16:14:26.088Z,18.44
2023-04-08T16:17:13.674Z,18.20
2023-04-08T16:20:00.469Z,17.99
2023-04-08T16:22:46.733Z,18.14
2023-04-08T16:25:33.380Z,18.18
2023-04-08T16:28:19.907Z,18.09
2023-04-08T16:31:06.941Z,19.10
2023-04-08T16:33:54.952Z,19.82
2023-04-08T16:36:43.850Z,20.33
2023-04-08T16:39:30.775Z,20.19
2023-04-08T16:42:21.061Z,18.98
2023-04-08T16:45:10.437Z,17.52
2023-04-08T16:48:00.499Z,17.30
2023-04-08T16:50:48.282Z,16.71
2023-04-08T16:53:35.718Z,16.05
2023-04-08T16:56:22.202Z,15.71
2023-04-08T16:59:08.865Z,15.40
2023-04-08T17:01:55.372Z,15.37
2023-04-08T17:04:42.005Z,15.30
2023-04-08T17:07:31.093Z,15.03
2023-04-08T17:10:17.729Z,15.10
2023-04-08T17:13:05.220Z,15.08
2023-04-08T17:15:51.779Z,14.85
2023-04-08T17:18:38.345Z,14.85
2023-04-08T17:21:27.107Z,14.64
2023-04-08T17:24:14.800Z,14.63
2023-04-08T17:27:01.277Z,14.46
2023-04-08T17:29:47.527Z,14.57
2023-04-08T17:32:33.954Z,14.82
2023-04-08T17:35:20.688Z,14.79
2023-04-08T17:38:10.607Z,14.61
2023-04-08T17:40:58.749Z,14.46
2023-04-08T17:43:45.698Z,14.45
2023-04-08T17:46:33.844Z,14.39
2023-04-08T17:49:21.134Z,14.24
2023-04-08T17:52:08.208Z,14.26
2023-04-08T17:54:56.086Z,14.38
2023-04-08T17:57:43.948Z,14.17
2023-04-08T18:00:30.347Z,14.34
2023-04-08T18:03:16.757Z,14.40
2023-04-08T18:06:03.541Z,14.46
2023-04-08T18:08:51.775Z,14.61
2023-04-08T18:11:38.173Z,14.35
2023-04-08T18:14:26.303Z,14.19
2023-04-08T18:17:14.325Z,14.04
2023-04-08T18:20:00.595Z,13.69
2023-04-08T18:22:48.458Z,13.35
2023-04-08T18:25:34.965Z,13.00
2023-04-08T18:28:22.464Z,12.79
2023-04-08T18:31:10.414Z,12.55
2023-04-08T18:33:57.013Z,12.54
2023-04-08T18:36:43.250Z,12.39
2023-04-08T18:39:29.662Z,12.12
2023-04-08T18:42:15.732Z,12.01
2023-04-08T18:45:02.361Z,11.98
2023-04-08T18:47:49.733Z,12.00
2023-04-08T18:50:37.034Z,11.93
2023-04-08T18:53:23.559Z,12.01
2023-04-08T18:56:15.398Z,12.10
2023-04-08T18:59:01.409Z,12.23
2023-04-08T19:01:47.637Z,12.28
2023-04-08T19:04:35.458Z,12.15
2023-04-08T19:07:21.939Z,12.10
2023-04-08T19:10:09.551Z,12.04
2023-04-08T19:12:55.820Z,12.17
2023-04-08T19:15:42.268Z,12.27
2023-04-08T19:18:28.702Z,12.29
2023-04-08T19:21:16.509Z,12.38
2023-04-08T19:24:04.794Z,12.30
2023-04-08T19:26:53.017Z,12.40
2023-04-08T19:29:39.571Z,12.64
2023-04-08T19:32:26.430Z,12.35
2023-04-08T19:35:13.196Z,12.16
2023-04-08T19:38:01.115Z,12.49
2023-04-08T19:40:47.943Z,12.65
2023-04-08T19:43:34.338Z,12.43
2023-04-08T19:46:20.936Z,12.31
2023-04-08T19:49:08.013Z,12.47
2023-04-08T19:51:55.851Z,12.81
2023-04-08T19:54:44.181Z,13.01
2023-04-08T19:57:30.430Z,13.06
2023-04-08T20:00:16.848Z,13.01
2023-04-08T20:03:03.428Z,13.64
2023-04-08T20:05:50.530Z,13.67
2023-04-08T20:08:36.985Z,13.73
2023-04-08T20:11:24.772Z,13.63
2023-04-08T20:14:11.223Z,13.18
2023-04-08T20:16:57.726Z,13.35
2023-04-08T20:19:44.123Z,13.23
2023-04-08T20:22:30.832Z,12.96
2023-04-08T20:25:17.284Z,12.59
2023-04-08T20:28:05.324Z,12.54
2023-04-08T20:30:54.003Z,12.21
2023-04-08T20:33:43.928Z,12.26
2023-04-08T20:36:30.898Z,12.40
2023-04-08T20:39:17.991Z,12.09
2023-04-08T20:42:05.380Z,12.04
2023-04-08T20:44:53.695Z,12.07
2023-04-08T20:47:40.544Z,11.77
2023-04-08T20:50:28.456Z,11.68
2023-04-08T20:53:14.535Z,11.75
2023-04-08T20:56:00.720Z,11.59
2023-04-08T20:58:47.069Z,11.63
2023-04-08T21:01:35.006Z,11.78
2023-04-08T21:04:22.348Z,11.63
2023-04-08T21:07:08.453Z,11.65
2023-04-08T21:09:54.747Z,11.48
2023-04-08T21:12:41.324Z,11.60
2023-04-08T21:15:33.632Z,11.36
2023-04-08T21:18:21.179Z,11.34
2023-04-08T21:21:07.722Z,11.06
2023-04-08T21:23:54.297Z,10.92
2023-04-08T21:26:40.623Z,10.74
2023-04-08T21:29:27.117Z,10.67
2023-04-08T21:32:13.361Z,10.93
2023-04-08T21:35:01.456Z,10.81
2023-04-08T21:37:47.724Z,11.26
2023-04-08T21:40:34.065Z,11.56
2023-04-08T21:43:20.469Z,11.49
2023-04-08T21:46:06.917Z,11.30
2023-04-08T21:48:53.499Z,11.17
2023-04-08T21:51:41.358Z,11.31
2023-04-08T21:54:27.844Z,11.22
2023-04-08T21:57:13.974Z,11.13
2023-04-08T22:00:00.467Z,11.25
2023-04-08T22:02:47.142Z,10.95
2023-04-08T22:05:33.960Z,11.00
2023-04-08T22:08:22.912Z,11.01
2023-04-08T22:11:09.648Z,10.73
2023-04-08T22:13:55.956Z,10.83
2023-04-08T22:16:43.028Z,10.86
2023-04-08T22:19:29.305Z,10.69
2023-04-08T22:22:15.825Z,10.56
2023-04-08T22:25:03.450Z,10.48
2023-04-08T22:27:49.588Z,10.34
2023-04-08T22:30:36.303Z,10.57
2023-04-08T22:33:22.455Z,10.75
2023-04-08T22:36:08.885Z,10.92
2023-04-08T22:38:54.971Z,10.73
2023-04-08T22:41:42.321Z,10.64
2023-04-08T22:44:28.804Z,10.45
2023-04-08T22:47:15.527Z,10.68
2023-04-08T22:50:01.859Z,10.83
2023-04-08T22:52:48.227Z,10.62
2023-04-08T22:55:34.620Z,10.83
2023-04-08T22:58:22.168Z,10.82
2023-04-08T23:01:12.809Z,10.67
2023-04-08T23:03:58.986Z,10.68
2023-04-08T23:06:45.682Z,10.50
2023-04-08T23:09:32.012Z,10.71
2023-04-08T23:12:18.370Z,10.65
2023-04-08T23:15:07.483Z,10.85
2023-04-08T23:17:53.858Z,10.93
2023-04-08T23:20:40.221Z,10.70
2023-04-08T23:23:27.093Z,10.70
2023-04-08T23:26:18.361Z,10.62
2023-04-08T23:29:04.751Z,11.12
2023-04-08T23:31:52.337Z,10.58
2023-04-08T23:34:38.971Z,10.85
2023-04-08T23:37:25.693Z,10.99
2023-04-08T23:40:12.599Z,10.96
2023-04-08T23:42:59.079Z,10.93
2023-04-08T23:45:45.210Z,10.85
2023-04-08T23:48:33.046Z,10.58
2023-04-08T23:51:19.568Z,10.90
2023-04-08T23:54:06.529Z,10.68
2023-04-08T23:56:52.538Z,10.48
2023-04-08T23:59:38.667Z,10.68
